createdAt,value
2019-01-23T00:00:34.236Z,22.48
2019-01-23T00:03:02.840Z,22.85
2019-01-23T00:05:31.388Z,23.10
2019-01-23T00:07:59.978Z,22.32
2019-01-23T00:10:28.635Z,23.07
2019-01-23T00:12:57.344Z,22.13
2019-01-23T00:15:25.839Z,21.42
2019-01-23T00:17:54.284Z,20.55
2019-01-23T00:20:22.793Z,24.23
2019-01-23T00:22:51.418Z,22.42
2019-01-23T00:25:20.217Z,21.17
2019-01-23T00:27:49.916Z,23.38
2019-01-23T00:30:18.484Z,23.12
2019-01-23T00:32:46.883Z,23.38
2019-01-23T00:35:15.474Z,22.87
2019-01-23T00:37:45.910Z,22.02
2019-01-23T00:40:15.010Z,23.22
2019-01-23T00:42:43.950Z,22.05
2019-01-23T00:45:14.449Z,22.15
2019-01-23T00:47:43.220Z,23.83
2019-01-23T00:50:13.331Z,23.67
2019-01-23T00:52:42.358Z,24.18
2019-01-23T00:55:12.970Z,23.40
2019-01-23T00:57:41.898Z,23.15
2019-01-23T01:00:16.897Z,23.35
2019-01-23T01:02:45.413Z,24.05
2019-01-23T01:05:15.125Z,22.30
2019-01-23T01:07:43.602Z,23.73
2019-01-23T01:10:13.580Z,24.25
2019-01-23T01:12:42.050Z,21.40
2019-01-23T01:15:13.473Z,22.27
2019-01-23T01:17:42.036Z,22.32
2019-01-23T01:20:12.247Z,24.07
2019-01-23T01:22:41.605Z,23.38
2019-01-23T01:25:13.658Z,23.85
2019-01-23T01:27:42.984Z,23.87
2019-01-23T01:30:17.512Z,22.42
2019-01-23T01:32:46.083Z,22.70
2019-01-23T01:35:14.426Z,23.10
2019-01-23T01:37:43.024Z,22.90
2019-01-23T01:40:13.262Z,24.25
2019-01-23T01:42:42.109Z,22.67
2019-01-23T01:45:13.506Z,23.50
2019-01-23T01:47:42.255Z,24.43
2019-01-23T01:50:17.761Z,23.65
2019-01-23T01:52:47.295Z,23.67
2019-01-23T01:55:16.148Z,22.48
2019-01-23T01:57:45.030Z,23.00
2019-01-23T02:00:19.635Z,24.37
2019-01-23T02:02:48.273Z,23.40
2019-01-23T02:05:17.485Z,23.07
2019-01-23T02:07:46.161Z,25.30
2019-01-23T02:10:19.405Z,24.60
2019-01-23T02:12:48.362Z,22.37
2019-01-23T02:15:18.290Z,22.98
2019-01-23T02:17:46.838Z,22.90
2019-01-23T02:20:26.812Z,23.60
2019-01-23T02:22:55.550Z,23.05
2019-01-23T02:25:25.750Z,23.52
2019-01-23T02:27:54.462Z,22.50
2019-01-23T02:30:24.752Z,22.95
2019-01-23T02:32:53.343Z,22.52
2019-01-23T02:35:21.898Z,23.27
2019-01-23T02:37:50.798Z,24.30
2019-01-23T02:40:22.103Z,22.95
2019-01-23T02:42:50.931Z,22.42
2019-01-23T02:45:20.688Z,24.20
2019-01-23T02:47:49.790Z,24.18
2019-01-23T02:50:18.627Z,24.00
2019-01-23T02:52:47.194Z,25.10
2019-01-23T02:55:15.810Z,23.15
2019-01-23T02:57:44.196Z,24.50
2019-01-23T03:00:16.391Z,24.57
2019-01-23T03:02:45.673Z,24.32
2019-01-23T03:05:17.250Z,23.30
2019-01-23T03:07:46.227Z,24.25
2019-01-23T03:10:17.850Z,22.70
2019-01-23T03:12:47.284Z,25.25
2019-01-23T03:15:17.152Z,23.05
2019-01-23T03:17:45.813Z,24.00
2019-01-23T03:20:16.821Z,23.05
2019-01-23T03:22:46.222Z,23.20
2019-01-23T03:25:16.356Z,23.47
2019-01-23T03:27:45.008Z,23.75
2019-01-23T03:30:21.948Z,22.80
2019-01-23T03:32:50.899Z,24.10
2019-01-23T03:35:19.555Z,25.02
2019-01-23T03:37:48.402Z,24.63
2019-01-23T03:40:19.594Z,24.32
2019-01-23T03:42:48.156Z,21.65
2019-01-23T03:45:17.211Z,25.57
2019-01-23T03:47:46.093Z,25.52
2019-01-23T03:50:16.886Z,23.30
2019-01-23T03:52:45.545Z,22.42
2019-01-23T03:55:15.437Z,22.32
2019-01-23T03:57:44.173Z,25.45
2019-01-23T04:00:16.447Z,23.32
2019-01-23T04:02:45.360Z,23.52
2019-01-23T04:05:13.906Z,22.65
2019-01-23T04:07:42.460Z,22.10
2019-01-23T04:10:13.410Z,24.10
2019-01-23T04:12:42.046Z,23.15
2019-01-23T04:15:12.377Z,23.45
2019-01-23T04:17:40.826Z,25.20
2019-01-23T04:20:13.458Z,23.90
2019-01-23T04:22:42.109Z,25.00
2019-01-23T04:25:11.227Z,26.80
2019-01-23T04:27:40.176Z,24.50
2019-01-23T04:30:13.659Z,23.67
2019-01-23T04:32:42.124Z,23.55
2019-01-23T04:35:10.782Z,22.62
2019-01-23T04:37:39.256Z,23.25
2019-01-23T04:40:08.712Z,24.82
2019-01-23T04:42:37.292Z,26.87
2019-01-23T04:45:14.890Z,24.27
2019-01-23T04:47:43.509Z,23.98
2019-01-23T04:50:14.471Z,24.23
2019-01-23T04:52:47.920Z,24.95
2019-01-23T04:55:16.653Z,25.08
2019-01-23T04:57:45.173Z,24.63
2019-01-23T05:00:16.672Z,25.08
2019-01-23T05:02:45.135Z,22.32
2019-01-23T05:05:14.540Z,23.77
2019-01-23T05:07:42.985Z,24.32
2019-01-23T05:10:11.641Z,25.08
2019-01-23T05:12:40.249Z,26.40
2019-01-23T05:15:09.428Z,24.37
2019-01-23T05:17:38.386Z,24.87
2019-01-23T05:20:07.877Z,25.12
2019-01-23T05:22:36.445Z,26.65
2019-01-23T05:25:05.849Z,24.10
2019-01-23T05:27:34.384Z,26.85
2019-01-23T05:30:03.784Z,24.15
2019-01-23T05:32:32.631Z,24.27
2019-01-23T05:35:01.304Z,23.85
2019-01-23T05:37:30.153Z,25.45
2019-01-23T05:39:58.683Z,25.52
2019-01-23T05:42:27.195Z,26.40
2019-01-23T05:44:55.820Z,26.65
2019-01-23T05:47:24.577Z,25.30
2019-01-23T05:49:53.512Z,26.62
2019-01-23T05:52:22.126Z,27.27
2019-01-23T05:54:50.706Z,25.10
2019-01-23T05:57:19.525Z,26.27
2019-01-23T05:59:48.129Z,27.22
2019-01-23T06:02:16.778Z,26.48
2019-01-23T06:04:45.379Z,26.52
2019-01-23T06:07:13.845Z,26.97
2019-01-23T06:09:42.357Z,27.60
2019-01-23T06:12:10.891Z,27.32
2019-01-23T06:14:41.183Z,26.70
2019-01-23T06:17:09.760Z,26.52
2019-01-23T06:19:38.279Z,26.68
2019-01-23T06:22:06.717Z,30.48
2019-01-23T06:24:35.266Z,28.12
2019-01-23T06:27:04.158Z,25.57
2019-01-23T06:29:32.806Z,26.40
2019-01-23T06:32:01.977Z,25.95
2019-01-23T06:34:31.281Z,26.05
2019-01-23T06:36:59.879Z,25.77
2019-01-23T06:39:29.696Z,24.85
2019-01-23T06:41:58.361Z,25.80
2019-01-23T06:44:26.932Z,26.77
2019-01-23T06:46:55.426Z,26.75
2019-01-23T06:49:24.373Z,28.55
2019-01-23T06:51:52.760Z,29.25
2019-01-23T06:54:21.339Z,29.92
2019-01-23T06:56:53.017Z,29.00
2019-01-23T06:59:21.484Z,30.50
2019-01-23T07:01:50.008Z,33.05
2019-01-23T07:04:19.213Z,33.15
2019-01-23T07:06:48.072Z,27.60
2019-01-23T07:09:16.669Z,34.00
2019-01-23T07:11:45.188Z,27.48
2019-01-23T07:14:13.858Z,26.55
2019-01-23T07:16:42.417Z,24.00
2019-01-23T07:19:11.200Z,26.05
2019-01-23T07:21:39.823Z,28.55
2019-01-23T07:24:08.369Z,32.35
2019-01-23T07:26:36.940Z,29.80
2019-01-23T07:29:05.553Z,29.90
2019-01-23T07:31:34.098Z,29.92
2019-01-23T07:34:03.091Z,29.90
2019-01-23T07:36:31.562Z,32.10
2019-01-23T07:39:00.191Z,31.27
2019-01-23T07:41:28.792Z,32.00
2019-01-23T07:43:57.265Z,31.12
2019-01-23T07:46:26.019Z,32.58
2019-01-23T07:48:54.446Z,41.37
2019-01-23T07:51:23.365Z,31.10
2019-01-23T07:53:52.047Z,33.18
2019-01-23T07:56:20.388Z,36.20
2019-01-23T07:58:48.822Z,31.95
2019-01-23T08:01:17.449Z,37.55
2019-01-23T08:03:46.018Z,31.30
2019-01-23T08:06:14.556Z,32.50
2019-01-23T08:08:43.148Z,35.13
2019-01-23T08:11:11.740Z,37.60
2019-01-23T08:13:40.358Z,35.10
2019-01-23T08:16:08.958Z,31.00
2019-01-23T08:18:37.354Z,32.75
2019-01-23T08:21:05.854Z,30.02
2019-01-23T08:23:34.363Z,30.85
2019-01-23T08:26:02.916Z,28.80
2019-01-23T08:28:31.459Z,28.70
2019-01-23T08:31:00.015Z,35.95
2019-01-23T08:33:28.726Z,31.47
2019-01-23T08:35:57.132Z,30.45
2019-01-23T08:38:25.721Z,30.68
2019-01-23T08:40:54.260Z,33.85
2019-01-23T08:43:23.144Z,32.33
2019-01-23T08:45:52.563Z,31.45
2019-01-23T08:48:21.553Z,32.05
2019-01-23T08:50:50.210Z,34.15
2019-01-23T08:53:18.702Z,29.95
2019-01-23T08:55:53.546Z,31.62
2019-01-23T08:58:17.795Z,31.90
2019-01-23T09:00:46.566Z,32.95
2019-01-23T09:03:15.614Z,28.87
2019-01-23T09:05:44.171Z,32.75
2019-01-23T09:08:13.188Z,35.25
2019-01-23T09:10:41.737Z,29.42
2019-01-23T09:13:10.153Z,30.77
2019-01-23T09:15:38.949Z,30.05
2019-01-23T09:18:07.526Z,28.17
2019-01-23T09:20:36.355Z,28.12
2019-01-23T09:23:05.028Z,28.15
2019-01-23T09:25:34.134Z,29.60
2019-01-23T09:28:02.750Z,27.80
2019-01-23T09:31:39.900Z,28.67
2019-01-23T09:34:49.973Z,29.35
2019-01-23T09:38:15.464Z,29.45
2019-01-23T09:41:01.586Z,25.82
2019-01-23T09:44:31.036Z,31.02
2019-01-23T09:47:37.388Z,27.90
2019-01-23T09:50:50.687Z,28.05
2019-01-23T09:53:38.311Z,27.90
2019-01-23T09:56:06.895Z,26.55
2019-01-23T09:58:35.292Z,28.38
2019-01-23T10:01:06.578Z,27.35
2019-01-23T10:03:35.661Z,27.55
2019-01-23T10:06:04.546Z,26.50
2019-01-23T10:08:32.958Z,26.57
2019-01-23T10:11:01.475Z,28.50
2019-01-23T10:13:29.833Z,26.57
2019-01-23T10:16:10.143Z,28.62
2019-01-23T10:18:39.118Z,26.73
2019-01-23T10:21:07.561Z,27.52
2019-01-23T10:23:36.513Z,29.07
2019-01-23T10:26:05.533Z,26.87
2019-01-23T10:28:34.002Z,28.45
2019-01-23T10:31:06.559Z,29.65
2019-01-23T10:33:33.345Z,27.70
2019-01-23T10:36:01.765Z,26.57
2019-01-23T10:38:30.529Z,28.50
2019-01-23T10:40:59.003Z,27.00
2019-01-23T10:43:27.671Z,26.97
2019-01-23T10:45:56.485Z,26.42
2019-01-23T10:48:25.519Z,29.23
2019-01-23T10:50:54.297Z,30.45
2019-01-23T10:53:22.656Z,29.02
2019-01-23T10:55:51.218Z,27.80
2019-01-23T10:58:19.912Z,31.23
2019-01-23T11:00:48.558Z,27.48
2019-01-23T11:03:16.984Z,29.87
2019-01-23T11:05:45.790Z,29.15
2019-01-23T11:08:14.403Z,27.85
2019-01-23T11:10:42.946Z,28.15
2019-01-23T11:13:12.377Z,27.87
2019-01-23T11:15:41.030Z,30.08
2019-01-23T11:18:09.767Z,29.23
2019-01-23T11:20:38.468Z,27.60
2019-01-23T11:23:07.140Z,26.55
2019-01-23T11:25:35.853Z,26.68
2019-01-23T11:28:04.890Z,27.85
2019-01-23T11:30:33.558Z,26.55
2019-01-23T11:33:02.142Z,26.00
2019-01-23T11:35:30.606Z,27.77
2019-01-23T11:37:59.227Z,27.70
2019-01-23T11:40:29.938Z,28.80
2019-01-23T11:42:58.654Z,27.07
2019-01-23T11:45:29.187Z,27.15
2019-01-23T11:47:57.824Z,26.45
2019-01-23T11:50:26.352Z,27.60
2019-01-23T11:52:54.893Z,27.35
2019-01-23T11:55:23.629Z,28.75
2019-01-23T11:57:52.345Z,27.93
2019-01-23T12:00:22.747Z,30.05
2019-01-23T12:02:51.282Z,27.55
2019-01-23T12:05:21.335Z,29.37
2019-01-23T12:07:50.518Z,27.60
2019-01-23T12:10:21.385Z,28.25
2019-01-23T12:12:50.314Z,27.75
2019-01-23T12:15:21.274Z,28.80
2019-01-23T12:17:50.017Z,29.35
2019-01-23T12:20:19.934Z,28.67
2019-01-23T12:22:48.516Z,28.57
2019-01-23T12:25:17.605Z,28.30
2019-01-23T12:27:46.167Z,28.95
2019-01-23T12:30:22.908Z,29.37
2019-01-23T12:32:52.120Z,27.98
2019-01-23T12:35:21.654Z,30.50
2019-01-23T12:37:50.206Z,27.25
2019-01-23T12:40:18.922Z,28.17
2019-01-23T12:42:47.659Z,27.90
2019-01-23T12:45:19.745Z,28.27
2019-01-23T12:47:48.757Z,30.20
2019-01-23T12:50:21.803Z,31.10
2019-01-23T12:52:50.758Z,27.98
2019-01-23T12:55:19.368Z,27.93
2019-01-23T12:57:47.934Z,30.20
2019-01-23T13:00:20.896Z,30.02
2019-01-23T13:02:49.339Z,27.90
2019-01-23T13:05:19.959Z,30.57
2019-01-23T13:07:48.647Z,27.30
2019-01-23T13:10:18.573Z,29.50
2019-01-23T13:12:48.212Z,27.42
2019-01-23T13:15:20.226Z,28.47
2019-01-23T13:17:49.097Z,30.52
2019-01-23T13:20:19.345Z,30.88
2019-01-23T13:22:47.707Z,27.65
2019-01-23T13:25:19.143Z,29.67
2019-01-23T13:27:48.268Z,30.30
2019-01-23T13:30:20.470Z,28.67
2019-01-23T13:32:49.241Z,29.48
2019-01-23T13:35:21.484Z,30.15
2019-01-23T13:37:49.912Z,31.42
2019-01-23T13:40:28.373Z,32.67
2019-01-23T13:42:57.040Z,30.48
2019-01-23T13:45:25.605Z,30.12
2019-01-23T13:47:54.535Z,28.65
2019-01-23T13:50:23.336Z,27.62
2019-01-23T13:52:51.686Z,28.55
2019-01-23T13:55:21.417Z,29.00
2019-01-23T13:57:49.933Z,32.33
2019-01-23T14:00:22.236Z,39.45
2019-01-23T14:02:51.226Z,55.73
2019-01-23T14:05:19.564Z,33.05
2019-01-23T14:07:48.042Z,37.78
2019-01-23T14:10:17.028Z,38.17
2019-01-23T14:12:45.595Z,27.65
2019-01-23T14:15:30.036Z,33.97
2019-01-23T14:17:58.608Z,29.67
2019-01-23T14:20:27.137Z,29.52
2019-01-23T14:22:55.853Z,40.05
2019-01-23T14:25:24.593Z,32.42
2019-01-23T14:27:53.067Z,30.55
2019-01-23T14:30:35.373Z,28.10
2019-01-23T14:33:04.198Z,28.67
2019-01-23T14:35:34.911Z,30.32
2019-01-23T14:38:04.258Z,31.02
2019-01-23T14:40:32.941Z,29.70
2019-01-23T14:43:02.219Z,35.48
2019-01-23T14:45:35.153Z,29.92
2019-01-23T14:48:04.803Z,31.27
2019-01-23T14:50:33.377Z,32.50
2019-01-23T14:53:02.901Z,28.00
2019-01-23T14:55:31.761Z,29.72
2019-01-23T14:58:00.346Z,31.57
2019-01-23T15:00:29.438Z,31.25
2019-01-23T15:02:57.950Z,41.75
2019-01-23T15:05:26.686Z,32.63
2019-01-23T15:07:55.236Z,31.60
2019-01-23T15:10:28.854Z,29.32
2019-01-23T15:12:57.590Z,30.32
2019-01-23T15:15:26.831Z,31.25
2019-01-23T15:17:55.554Z,30.62
2019-01-23T15:20:28.402Z,31.93
2019-01-23T15:22:57.065Z,31.10
2019-01-23T15:25:25.771Z,31.12
2019-01-23T15:27:54.366Z,30.97
2019-01-23T15:30:23.295Z,31.70
2019-01-23T15:32:52.339Z,32.35
2019-01-23T15:35:21.290Z,31.52
2019-01-23T15:37:49.956Z,30.97
2019-01-23T15:40:22.353Z,31.27
2019-01-23T15:42:51.302Z,31.45
2019-01-23T15:45:19.910Z,31.68
2019-01-23T15:47:48.351Z,31.80
2019-01-23T15:50:20.641Z,31.17
2019-01-23T15:52:49.228Z,33.95
2019-01-23T15:55:20.557Z,32.53
2019-01-23T15:57:49.132Z,33.83
2019-01-23T16:00:24.664Z,34.35
2019-01-23T16:02:53.555Z,33.73
2019-01-23T16:05:22.143Z,33.45
2019-01-23T16:07:50.798Z,33.23
2019-01-23T16:10:22.315Z,33.18
2019-01-23T16:12:51.091Z,33.10
2019-01-23T16:15:22.406Z,32.33
2019-01-23T16:17:51.150Z,44.48
2019-01-23T16:20:20.039Z,53.20
2019-01-23T16:22:48.656Z,37.55
2019-01-23T16:25:17.483Z,32.93
2019-01-23T16:27:46.141Z,31.55
2019-01-23T16:30:25.864Z,33.70
2019-01-23T16:32:54.457Z,33.48
2019-01-23T16:35:23.033Z,38.33
2019-01-23T16:37:52.116Z,36.20
2019-01-23T16:40:20.715Z,35.03
2019-01-23T16:42:49.648Z,35.70
2019-01-23T16:45:18.894Z,34.78
2019-01-23T16:47:47.562Z,32.42
2019-01-23T16:50:18.820Z,37.05
2019-01-23T16:52:47.435Z,34.45
2019-01-23T16:55:16.199Z,35.43
2019-01-23T16:57:45.693Z,33.50
2019-01-23T17:00:18.547Z,36.10
2019-01-23T17:02:47.539Z,34.80
2019-01-23T17:05:23.409Z,35.95
2019-01-23T17:07:52.380Z,42.58
2019-01-23T17:10:22.856Z,47.50
2019-01-23T17:12:52.548Z,53.90
2019-01-23T17:15:21.995Z,59.38
2019-01-23T17:17:50.881Z,40.45
2019-01-23T17:20:39.373Z,49.05
2019-01-23T17:23:07.992Z,33.40
2019-01-23T17:25:36.539Z,39.27
2019-01-23T17:28:07.296Z,41.02
2019-01-23T17:30:36.085Z,40.95
2019-01-23T17:33:04.937Z,43.63
2019-01-23T17:35:33.804Z,37.98
2019-01-23T17:38:02.595Z,38.58
2019-01-23T17:40:31.342Z,41.33
2019-01-23T17:42:59.970Z,41.80
2019-01-23T17:45:33.938Z,41.18
2019-01-23T17:48:03.397Z,38.55
2019-01-23T17:50:31.843Z,43.55
2019-01-23T17:53:00.608Z,43.40
2019-01-23T17:55:32.421Z,35.95
2019-01-23T17:58:00.895Z,48.60
2019-01-23T18:00:34.043Z,39.30
2019-01-23T18:03:02.799Z,44.40
2019-01-23T18:05:31.251Z,43.75
2019-01-23T18:07:59.796Z,39.45
2019-01-23T18:10:28.663Z,40.78
2019-01-23T18:12:57.201Z,46.48
2019-01-23T18:15:26.262Z,38.87
2019-01-23T18:17:55.543Z,36.73
2019-01-23T18:20:27.218Z,37.40
2019-01-23T18:22:56.304Z,36.08
2019-01-23T18:25:25.418Z,42.55
2019-01-23T18:27:53.894Z,35.45
2019-01-23T18:30:33.176Z,40.95
2019-01-23T18:33:03.967Z,41.20
2019-01-23T18:36:21.463Z,39.18
2019-01-23T18:39:15.289Z,37.08
2019-01-23T18:43:00.274Z,36.03
2019-01-23T18:46:45.183Z,32.88
2019-01-23T18:50:38.023Z,42.67
2019-01-23T18:53:07.643Z,32.85
2019-01-23T18:55:36.138Z,31.95
2019-01-23T18:58:05.045Z,34.00
2019-01-23T19:00:33.835Z,33.40
2019-01-23T19:03:06.937Z,31.65
2019-01-23T19:05:32.607Z,34.27
2019-01-23T19:08:01.067Z,31.75
2019-01-23T19:10:29.586Z,32.58
2019-01-23T19:12:58.024Z,30.20
2019-01-23T19:15:29.014Z,30.85
2019-01-23T19:17:57.656Z,32.03
2019-01-23T19:20:26.640Z,34.40
2019-01-23T19:22:55.190Z,32.60
2019-01-23T19:25:24.375Z,33.67
2019-01-23T19:27:52.860Z,32.03
2019-01-23T19:30:22.087Z,33.48
2019-01-23T19:32:50.550Z,32.58
2019-01-23T19:35:19.210Z,34.43
2019-01-23T19:37:47.871Z,33.00
2019-01-23T19:40:16.994Z,33.83
2019-01-23T19:42:45.483Z,33.23
2019-01-23T19:45:23.053Z,33.28
2019-01-23T19:47:51.709Z,31.82
2019-01-23T19:50:20.389Z,33.20
2019-01-23T19:52:48.856Z,33.48
2019-01-23T19:55:17.885Z,31.73
2019-01-23T19:57:46.246Z,31.70
2019-01-23T20:00:23.056Z,31.50
2019-01-23T20:02:51.837Z,31.40
2019-01-23T20:05:27.734Z,32.10
2019-01-23T20:07:56.098Z,31.00
2019-01-23T20:10:27.288Z,33.23
2019-01-23T20:12:55.901Z,32.93
2019-01-23T20:15:24.731Z,31.82
2019-01-23T20:18:04.398Z,33.28
2019-01-23T20:20:32.989Z,31.62
2019-01-23T20:23:01.330Z,31.35
2019-01-23T20:25:30.054Z,31.42
2019-01-23T20:27:58.840Z,30.92
2019-01-23T20:30:38.397Z,31.70
2019-01-23T20:33:06.882Z,30.05
2019-01-23T20:35:35.413Z,31.45
2019-01-23T20:38:05.374Z,31.80
2019-01-23T20:40:33.883Z,30.92
2019-01-23T20:43:02.480Z,30.10
2019-01-23T20:45:31.762Z,31.82
2019-01-23T20:48:00.437Z,30.75
2019-01-23T20:50:31.025Z,28.98
2019-01-23T20:52:59.605Z,30.88
2019-01-23T20:55:28.228Z,29.90
2019-01-23T20:57:57.246Z,29.15
2019-01-23T21:00:29.133Z,31.62
2019-01-23T21:02:57.642Z,30.88
2019-01-23T21:05:26.336Z,29.95
2019-01-23T21:07:55.310Z,29.90
2019-01-23T21:10:24.527Z,28.83
2019-01-23T21:12:53.253Z,31.00
2019-01-23T21:15:30.603Z,30.52
2019-01-23T21:17:59.848Z,28.50
2019-01-23T21:20:34.739Z,28.92
2019-01-23T21:23:03.629Z,29.12
2019-01-23T21:25:32.151Z,28.15
2019-01-23T21:28:00.801Z,29.67
2019-01-23T21:30:29.452Z,27.00
2019-01-23T21:32:58.328Z,28.60
2019-01-23T21:35:26.951Z,28.47
2019-01-23T21:37:55.396Z,30.32
2019-01-23T21:40:30.347Z,28.67
2019-01-23T21:42:59.123Z,28.38
2019-01-23T21:45:30.555Z,27.25
2019-01-23T21:47:59.761Z,29.37
2019-01-23T21:50:28.416Z,29.63
2019-01-23T21:52:56.891Z,30.57
2019-01-23T21:55:25.842Z,28.32
2019-01-23T21:57:54.856Z,26.65
2019-01-23T22:00:42.449Z,29.55
2019-01-23T22:03:12.674Z,29.30
2019-01-23T22:05:41.580Z,27.25
2019-01-23T22:08:10.181Z,28.98
2019-01-23T22:10:38.732Z,31.10
2019-01-23T22:13:07.747Z,28.62
2019-01-23T22:15:36.579Z,28.23
2019-01-23T22:18:09.483Z,29.98
2019-01-23T22:20:38.180Z,26.20
2019-01-23T22:23:06.853Z,30.60
2019-01-23T22:25:35.344Z,29.63
2019-01-23T22:28:04.439Z,26.45
2019-01-23T22:30:33.680Z,28.25
2019-01-23T22:33:02.697Z,27.60
2019-01-23T22:35:31.554Z,29.65
2019-01-23T22:38:00.038Z,27.62
2019-01-23T22:40:28.646Z,27.32
2019-01-23T22:42:57.772Z,28.83
2019-01-23T22:45:26.403Z,30.25
2019-01-23T22:47:54.848Z,30.55
2019-01-23T22:50:26.160Z,28.90
2019-01-23T22:52:54.614Z,29.72
2019-01-23T22:55:23.396Z,29.30
2019-01-23T22:57:51.921Z,31.40
2019-01-23T23:00:44.348Z,29.40
2019-01-23T23:03:17.254Z,31.37
2019-01-23T23:05:45.900Z,30.52
2019-01-23T23:08:14.438Z,31.10
2019-01-23T23:10:43.006Z,32.50
2019-01-23T23:13:11.630Z,32.33
2019-01-23T23:15:40.302Z,33.28
2019-01-23T23:18:09.167Z,34.27
2019-01-23T23:20:37.709Z,33.42
2019-01-23T23:23:06.412Z,32.20
2019-01-23T23:25:34.911Z,32.45
2019-01-23T23:28:04.328Z,33.40
2019-01-23T23:30:33.111Z,33.35
2019-01-23T23:33:02.781Z,36.10
2019-01-23T23:35:32.000Z,34.55
2019-01-23T23:38:00.814Z,34.92
2019-01-23T23:40:29.239Z,33.50
2019-01-23T23:42:57.917Z,32.58
2019-01-23T23:45:26.908Z,32.38
2019-01-23T23:47:55.627Z,32.80
2019-01-23T23:50:24.150Z,33.65
2019-01-23T23:52:52.615Z,33.42
2019-01-23T23:55:21.143Z,35.52
2019-01-23T23:57:50.784Z,34.25
